createdAt,value
2023-01-22T00:00:30.157Z,53.02
2023-01-22T00:01:30.155Z,60.15
2023-01-22T00:02:30.169Z,51.90
2023-01-22T00:03:30.179Z,61.75
2023-01-22T00:04:30.131Z,51.64
2023-01-22T00:05:30.965Z,61.86
2023-01-22T00:06:30.120Z,59.01
2023-01-22T00:07:30.125Z,57.40
2023-01-22T00:08:30.099Z,61.91
2023-01-22T00:09:30.089Z,52.65
2023-01-22T00:10:30.077Z,59.13
2023-01-22T00:11:30.075Z,53.01
2023-01-22T00:12:33.930Z,52.24
2023-01-22T00:13:30.058Z,53.47
2023-01-22T00:14:30.118Z,56.38
2023-01-22T00:15:30.046Z,57.28
2023-01-22T00:16:30.051Z,62.12
2023-01-22T00:17:30.885Z,49.42
2023-01-22T00:18:30.033Z,59.06
2023-01-22T00:19:30.029Z,58.02
2023-01-22T00:20:30.379Z,53.12
2023-01-22T00:21:30.086Z,59.51
2023-01-22T00:22:29.979Z,57.66
2023-01-22T00:23:29.994Z,62.51
2023-01-22T00:24:29.974Z,52.35
2023-01-22T00:27:20.063Z,52.13
2023-01-22T00:28:20.053Z,48.82
2023-01-22T00:29:20.064Z,55.70
2023-01-22T00:30:21.136Z,62.13
2023-01-22T00:31:21.161Z,60.96
2023-01-22T00:32:21.821Z,60.35
2023-01-22T00:33:22.113Z,56.80
2023-01-22T00:34:21.107Z,55.00
2023-01-22T00:35:21.083Z,54.38
2023-01-22T00:36:21.076Z,56.54
2023-01-22T00:37:21.083Z,54.99
2023-01-22T00:38:21.067Z,57.66
2023-01-22T00:39:21.108Z,55.00
2023-01-22T00:40:21.043Z,47.67
2023-01-22T00:41:21.034Z,52.81
2023-01-22T00:42:21.027Z,44.60
2023-01-22T00:43:21.057Z,51.23
2023-01-22T00:44:21.020Z,55.80
2023-01-22T00:45:21.045Z,56.67
2023-01-22T00:46:21.028Z,59.87
2023-01-22T00:47:21.001Z,55.33
2023-01-22T00:48:20.985Z,54.79
2023-01-22T00:49:20.992Z,59.72
2023-01-22T00:50:20.967Z,58.85
2023-01-22T00:51:21.036Z,57.50
2023-01-22T00:52:21.038Z,56.97
2023-01-22T00:53:20.945Z,58.56
2023-01-22T00:54:20.955Z,60.49
2023-01-22T00:55:20.931Z,53.11
2023-01-22T00:56:20.924Z,57.20
2023-01-22T00:57:20.919Z,52.73
2023-01-22T00:58:20.895Z,54.95
2023-01-22T00:59:20.903Z,50.02
2023-01-22T01:00:20.888Z,56.94
2023-01-22T01:01:20.872Z,51.25
2023-01-22T01:02:21.754Z,58.72
2023-01-22T01:03:20.859Z,58.52
2023-01-22T01:04:20.852Z,59.14
2023-01-22T01:05:20.853Z,54.79
2023-01-22T01:06:20.868Z,56.14
2023-01-22T01:07:21.709Z,57.56
2023-01-22T01:08:20.824Z,52.65
2023-01-22T01:09:20.820Z,56.88
2023-01-22T01:10:21.006Z,60.64
2023-01-22T01:11:20.802Z,48.16
2023-01-22T01:12:20.787Z,47.63
2023-01-22T01:13:20.879Z,48.67
2023-01-22T01:14:20.785Z,42.39
2023-01-22T01:15:20.764Z,51.00
2023-01-22T01:16:20.800Z,53.82
2023-01-22T01:17:20.752Z,50.11
2023-01-22T01:18:20.745Z,44.87
2023-01-22T01:19:20.747Z,50.97
2023-01-22T01:20:20.908Z,43.48
2023-01-22T01:21:20.751Z,53.87
2023-01-22T01:22:20.712Z,59.30
2023-01-22T01:23:20.713Z,50.90
2023-01-22T01:24:20.710Z,59.51
2023-01-22T01:25:20.691Z,52.49
2023-01-22T01:26:20.676Z,50.97
2023-01-22T01:27:20.675Z,51.66
2023-01-22T01:28:20.686Z,52.26
2023-01-22T01:29:20.761Z,50.96
2023-01-22T01:30:20.758Z,53.36
2023-01-22T01:31:20.856Z,58.91
2023-01-22T01:32:20.631Z,59.98
2023-01-22T01:33:20.628Z,57.42
2023-01-22T01:34:20.626Z,55.09
2023-01-22T01:35:22.692Z,51.83
2023-01-22T01:36:35.325Z,57.00
2023-01-22T01:37:30.119Z,56.28
2023-01-22T01:38:22.158Z,56.90
2023-01-22T01:39:20.596Z,59.39
2023-01-22T01:40:20.578Z,61.37
2023-01-22T01:41:20.563Z,53.35
2023-01-22T01:42:20.552Z,53.67
2023-01-22T01:43:21.557Z,56.52
2023-01-22T01:44:20.553Z,48.20
2023-01-22T01:45:20.643Z,52.42
2023-01-22T01:46:20.544Z,56.90
2023-01-22T01:47:20.516Z,50.81
2023-01-22T01:48:20.512Z,56.25
2023-01-22T01:49:20.499Z,51.27
2023-01-22T01:50:20.499Z,57.90
2023-01-22T01:51:20.540Z,46.95
2023-01-22T01:52:20.492Z,47.50
2023-01-22T01:53:20.470Z,50.08
2023-01-22T01:54:20.466Z,57.51
2023-01-22T01:55:20.463Z,59.06
2023-01-22T01:56:20.442Z,52.06
2023-01-22T01:57:20.443Z,51.79
2023-01-22T01:58:20.433Z,47.59
2023-01-22T01:59:20.417Z,49.50
2023-01-22T02:00:20.423Z,54.36
2023-01-22T02:03:27.243Z,49.61
2023-01-22T02:04:27.245Z,50.11
2023-01-22T02:05:27.228Z,45.73
2023-01-22T02:06:27.230Z,42.38
2023-01-22T02:07:28.330Z,54.12
2023-01-22T02:08:28.301Z,54.76
2023-01-22T02:09:29.310Z,47.93
2023-01-22T02:10:28.287Z,54.74
2023-01-22T02:11:28.301Z,56.11
2023-01-22T02:12:28.264Z,44.87
2023-01-22T02:13:28.270Z,48.69
2023-01-22T02:14:28.263Z,52.07
2023-01-22T02:15:28.245Z,53.50
2023-01-22T02:16:28.351Z,53.38
2023-01-22T02:17:28.236Z,48.97
2023-01-22T02:18:28.336Z,49.53
2023-01-22T02:19:29.185Z,45.53
2023-01-22T02:20:28.226Z,48.36
2023-01-22T02:21:28.221Z,51.20
2023-01-22T02:22:28.227Z,46.76
2023-01-22T02:23:47.177Z,52.08
2023-01-22T02:24:30.685Z,43.92
2023-01-22T02:25:30.095Z,55.75
2023-01-22T02:26:31.109Z,55.90
2023-01-22T02:27:28.163Z,50.29
2023-01-22T02:28:28.170Z,55.72
2023-01-22T02:29:28.146Z,56.84
2023-01-22T02:30:28.159Z,61.08
2023-01-22T02:31:28.147Z,50.85
2023-01-22T02:32:29.125Z,46.91
2023-01-22T02:33:29.111Z,43.06
2023-01-22T02:34:29.207Z,48.85
2023-01-22T02:35:28.136Z,53.31
2023-01-22T02:36:28.100Z,55.27
2023-01-22T02:37:28.076Z,50.83
2023-01-22T02:38:28.068Z,51.56
2023-01-22T02:39:28.077Z,50.20
2023-01-22T02:40:28.058Z,53.69
2023-01-22T02:41:28.685Z,54.52
2023-01-22T02:42:28.076Z,42.71
2023-01-22T02:43:28.030Z,52.14
2023-01-22T02:44:28.053Z,54.68
2023-01-22T02:45:28.024Z,49.52
2023-01-22T02:46:29.010Z,52.05
2023-01-22T02:47:28.011Z,47.51
2023-01-22T02:48:27.990Z,46.73
2023-01-22T02:49:27.994Z,49.32
2023-01-22T02:50:28.702Z,59.33
2023-01-22T02:51:27.993Z,54.01
2023-01-22T02:52:29.603Z,51.76
2023-01-22T02:53:27.950Z,54.31
2023-01-22T02:54:28.688Z,53.63
2023-01-22T02:55:27.946Z,51.12
2023-01-22T02:56:27.928Z,58.57
2023-01-22T02:57:27.930Z,59.45
2023-01-22T02:58:27.925Z,55.64
2023-01-22T02:59:27.908Z,47.21
2023-01-22T03:00:27.906Z,41.74
2023-01-22T03:01:27.903Z,51.96
2023-01-22T03:02:28.970Z,58.09
2023-01-22T03:03:27.866Z,58.77
2023-01-22T03:04:29.694Z,55.09
2023-01-22T03:05:28.851Z,54.10
2023-01-22T03:06:27.965Z,57.88
2023-01-22T03:07:27.843Z,56.13
2023-01-22T03:08:27.835Z,56.97
2023-01-22T03:09:27.828Z,57.01
2023-01-22T03:10:27.815Z,59.86
2023-01-22T03:11:27.809Z,55.94
2023-01-22T03:12:27.804Z,55.19
2023-01-22T03:13:27.790Z,52.58
2023-01-22T03:14:28.790Z,44.22
2023-01-22T03:15:28.783Z,54.71
2023-01-22T03:16:27.830Z,57.19
2023-01-22T03:17:27.769Z,48.04
2023-01-22T03:18:27.755Z,53.60
2023-01-22T03:19:27.744Z,53.60
2023-01-22T03:20:27.742Z,44.60
2023-01-22T03:21:27.736Z,46.47
2023-01-22T03:22:28.798Z,58.95
2023-01-22T03:23:27.721Z,51.66
2023-01-22T03:24:29.608Z,43.75
2023-01-22T03:25:27.713Z,58.03
2023-01-22T03:26:28.695Z,51.90
2023-01-22T03:27:27.703Z,51.23
2023-01-22T03:28:27.679Z,50.05
2023-01-22T03:29:27.682Z,52.97
2023-01-22T03:30:27.675Z,55.72
2023-01-22T03:31:27.782Z,43.50
2023-01-22T03:32:27.648Z,43.72
2023-01-22T03:33:27.645Z,46.41
2023-01-22T03:34:27.630Z,47.55
2023-01-22T03:35:27.621Z,54.23
2023-01-22T03:36:27.619Z,58.15
2023-01-22T03:37:27.601Z,55.61
2023-01-22T03:38:27.819Z,50.84
2023-01-22T03:39:28.120Z,53.58
2023-01-22T03:40:28.196Z,52.95
2023-01-22T03:41:28.556Z,49.32
2023-01-22T03:42:27.570Z,55.89
2023-01-22T03:43:27.563Z,48.48
2023-01-22T03:44:28.193Z,42.82
2023-01-22T03:45:27.544Z,52.12
2023-01-22T03:46:27.570Z,51.87
2023-01-22T03:47:27.546Z,56.54
2023-01-22T03:48:28.108Z,54.39
2023-01-22T03:49:27.543Z,57.98
2023-01-22T03:50:27.503Z,54.55
2023-01-22T03:51:27.501Z,59.77
2023-01-22T03:52:27.486Z,50.14
2023-01-22T03:53:27.501Z,48.48
2023-01-22T03:54:27.577Z,54.73
2023-01-22T03:55:27.465Z,57.73
2023-01-22T03:56:27.476Z,56.56
2023-01-22T03:57:27.468Z,51.43
2023-01-22T03:58:28.117Z,57.08
2023-01-22T03:59:27.444Z,52.83
2023-01-22T04:00:27.430Z,55.84
2023-01-22T04:01:27.464Z,54.63
2023-01-22T04:02:27.501Z,55.18
2023-01-22T04:03:27.470Z,47.49
2023-01-22T04:04:27.423Z,52.82
2023-01-22T04:05:27.391Z,55.85
2023-01-22T04:06:28.128Z,58.85
2023-01-22T04:07:27.387Z,58.74
2023-01-22T04:08:27.374Z,58.00
2023-01-22T04:09:27.367Z,58.68
2023-01-22T04:10:27.459Z,58.55
2023-01-22T04:11:27.361Z,61.20
2023-01-22T04:12:28.335Z,61.62
2023-01-22T04:13:27.346Z,45.33
2023-01-22T04:14:27.327Z,53.37
2023-01-22T04:15:27.316Z,45.39
2023-01-22T04:16:27.315Z,55.93
2023-01-22T04:17:27.330Z,59.68
2023-01-22T04:18:27.291Z,47.71
2023-01-22T04:19:27.304Z,40.18
2023-01-22T04:20:27.285Z,42.25
2023-01-22T04:21:27.273Z,53.08
2023-01-22T04:22:27.311Z,51.54
2023-01-22T04:23:27.261Z,52.48
2023-01-22T04:24:28.248Z,50.30
2023-01-22T04:25:27.251Z,52.21
2023-01-22T04:26:27.667Z,49.17
2023-01-22T04:27:28.227Z,54.28
2023-01-22T04:28:27.228Z,50.58
2023-01-22T04:29:27.211Z,60.77
2023-01-22T04:30:27.270Z,54.00
2023-01-22T04:31:27.328Z,63.14
2023-01-22T04:32:27.186Z,57.77
2023-01-22T04:33:27.180Z,59.98
2023-01-22T04:34:27.174Z,46.18
2023-01-22T04:35:27.167Z,51.88
2023-01-22T04:36:28.980Z,54.01
2023-01-22T04:37:28.148Z,51.01
2023-01-22T04:38:27.145Z,55.16
2023-01-22T04:39:27.132Z,51.04
2023-01-22T04:40:27.143Z,58.45
2023-01-22T04:41:27.116Z,58.67
2023-01-22T04:42:27.262Z,57.17
2023-01-22T04:43:27.702Z,54.21
2023-01-22T04:44:27.099Z,54.71
2023-01-22T04:45:27.085Z,54.29
2023-01-22T04:46:27.110Z,50.49
2023-01-22T04:47:27.076Z,51.82
2023-01-22T04:48:27.112Z,47.85
2023-01-22T04:49:27.066Z,58.96
2023-01-22T04:50:27.059Z,50.81
2023-01-22T04:51:27.122Z,52.88
2023-01-22T04:52:27.620Z,58.69
2023-01-22T04:53:27.024Z,55.55
2023-01-22T04:54:27.030Z,47.10
2023-01-22T04:55:27.003Z,50.88
2023-01-22T04:56:26.999Z,47.18
2023-01-22T04:57:27.001Z,49.20
2023-01-22T04:58:27.100Z,55.92
2023-01-22T04:59:26.987Z,57.02
2023-01-22T05:00:26.982Z,47.29
2023-01-22T05:01:26.992Z,47.89
2023-01-22T05:02:27.689Z,48.31
2023-01-22T05:03:26.956Z,48.50
2023-01-22T05:04:26.966Z,47.27
2023-01-22T05:05:26.938Z,51.77
2023-01-22T05:06:26.924Z,53.66
2023-01-22T05:07:27.698Z,57.47
2023-01-22T05:08:26.913Z,44.35
2023-01-22T05:09:26.902Z,58.04
2023-01-22T05:10:26.927Z,51.36
2023-01-22T05:11:26.893Z,56.33
2023-01-22T05:12:26.902Z,57.27
2023-01-22T05:13:26.870Z,58.60
2023-01-22T05:14:26.972Z,50.64
2023-01-22T05:15:26.892Z,51.07
2023-01-22T05:16:26.845Z,59.59
2023-01-22T05:17:26.844Z,53.39
2023-01-22T05:18:26.873Z,53.33
2023-01-22T05:19:26.822Z,60.37
2023-01-22T05:20:26.825Z,56.13
2023-01-22T05:21:26.799Z,50.99
2023-01-22T05:22:27.713Z,55.47
2023-01-22T05:23:26.817Z,65.27
2023-01-22T05:24:26.804Z,59.34
2023-01-22T05:25:26.774Z,63.07
2023-01-22T05:26:26.772Z,61.81
2023-01-22T05:27:26.782Z,57.31
2023-01-22T05:28:26.763Z,48.79
2023-01-22T05:29:26.762Z,56.96
2023-01-22T05:30:26.939Z,64.14
2023-01-22T05:31:27.689Z,51.42
2023-01-22T05:32:26.773Z,47.86
2023-01-22T05:33:26.722Z,61.11
2023-01-22T05:34:26.713Z,59.46
2023-01-22T05:35:26.711Z,52.64
2023-01-22T05:36:26.709Z,58.94
2023-01-22T05:37:26.728Z,51.08
2023-01-22T05:38:26.679Z,47.94
2023-01-22T05:39:26.676Z,58.00
2023-01-22T05:40:26.667Z,59.34
2023-01-22T05:41:26.693Z,53.29
2023-01-22T05:42:26.662Z,48.83
2023-01-22T05:43:26.644Z,55.46
2023-01-22T05:44:26.646Z,54.02
2023-01-22T05:45:26.634Z,54.66
2023-01-22T05:46:26.812Z,53.12
2023-01-22T05:47:26.622Z,55.16
2023-01-22T05:48:26.636Z,57.18
2023-01-22T05:49:26.628Z,54.91
2023-01-22T05:50:26.589Z,57.02
2023-01-22T05:51:26.615Z,53.46
2023-01-22T05:52:26.592Z,55.68
2023-01-22T05:53:26.566Z,49.39
2023-01-22T05:54:26.597Z,53.06
2023-01-22T05:55:26.549Z,47.12
2023-01-22T05:56:26.542Z,50.31
2023-01-22T05:57:26.535Z,53.43
2023-01-22T05:58:26.539Z,54.69
2023-01-22T05:59:26.548Z,49.51
2023-01-22T06:00:26.538Z,55.34
2023-01-22T06:01:26.510Z,65.38
2023-01-22T06:02:26.632Z,54.08
2023-01-22T06:03:26.546Z,58.49
2023-01-22T06:04:26.522Z,55.10
2023-01-22T06:05:26.547Z,57.87
2023-01-22T06:06:26.467Z,54.43
2023-01-22T06:07:26.468Z,52.48
2023-01-22T06:08:26.470Z,49.29
2023-01-22T06:09:26.464Z,52.82
2023-01-22T06:10:26.451Z,49.02
2023-01-22T06:11:26.428Z,51.91
2023-01-22T06:12:26.446Z,59.02
2023-01-22T06:13:26.449Z,56.21
2023-01-22T06:14:26.412Z,52.06
2023-01-22T06:15:26.422Z,51.84
2023-01-22T06:16:26.391Z,46.86
2023-01-22T06:17:27.388Z,48.90
2023-01-22T06:18:26.517Z,54.84
2023-01-22T06:19:26.374Z,52.79
2023-01-22T06:20:26.404Z,50.84
2023-01-22T06:21:26.360Z,55.21
2023-01-22T06:22:26.368Z,58.99
2023-01-22T06:23:26.357Z,50.30
2023-01-22T06:24:27.133Z,55.13
2023-01-22T06:25:26.333Z,55.09
2023-01-22T06:26:27.376Z,61.98
2023-01-22T06:27:26.313Z,57.44
2023-01-22T06:28:26.327Z,58.21
2023-01-22T06:29:26.302Z,54.07
2023-01-22T06:30:26.314Z,52.54
2023-01-22T06:31:26.423Z,56.01
2023-01-22T06:32:26.276Z,51.89
2023-01-22T06:33:26.266Z,59.21
2023-01-22T06:34:26.357Z,58.28
2023-01-22T06:35:26.245Z,57.36
2023-01-22T06:36:26.238Z,47.54
2023-01-22T06:37:27.141Z,53.34
2023-01-22T06:38:26.221Z,57.01
2023-01-22T06:39:26.223Z,54.56
2023-01-22T06:40:26.225Z,53.59
2023-01-22T06:41:26.205Z,59.76
2023-01-22T06:42:26.199Z,56.28
2023-01-22T06:43:26.190Z,53.79
2023-01-22T06:44:26.203Z,55.54
2023-01-22T06:45:26.172Z,53.49
2023-01-22T06:46:26.223Z,54.54
2023-01-22T06:47:26.151Z,43.95
2023-01-22T06:48:26.148Z,56.82
2023-01-22T06:49:26.141Z,55.17
2023-01-22T06:50:26.231Z,48.67
2023-01-22T06:51:27.632Z,52.04
2023-01-22T06:52:26.111Z,48.71
2023-01-22T06:53:26.125Z,57.79
2023-01-22T06:54:26.138Z,53.32
2023-01-22T06:55:27.084Z,55.63
2023-01-22T06:56:27.707Z,55.55
2023-01-22T06:57:26.594Z,55.72
2023-01-22T06:58:26.064Z,53.56
2023-01-22T06:59:26.060Z,51.02
2023-01-22T07:00:26.048Z,49.03
2023-01-22T07:01:26.158Z,53.85
2023-01-22T07:02:26.639Z,55.01
2023-01-22T07:03:26.086Z,55.25
2023-01-22T07:04:26.027Z,51.32
2023-01-22T07:05:26.016Z,51.57
2023-01-22T07:06:26.109Z,54.47
2023-01-22T07:07:26.020Z,54.92
2023-01-22T07:08:25.993Z,51.56
2023-01-22T07:09:25.992Z,57.00
2023-01-22T07:10:25.995Z,58.74
2023-01-22T07:11:25.978Z,56.05
2023-01-22T07:12:25.960Z,55.68
2023-01-22T07:13:25.953Z,54.16
2023-01-22T07:14:36.553Z,57.58
2023-01-22T07:15:27.954Z,56.50
2023-01-22T07:16:25.929Z,58.71
2023-01-22T07:17:25.926Z,58.30
2023-01-22T07:18:25.916Z,46.98
2023-01-22T07:19:25.934Z,54.05
2023-01-22T07:20:25.954Z,53.52
2023-01-22T07:21:25.894Z,58.80
2023-01-22T07:22:25.993Z,56.23
2023-01-22T07:23:25.881Z,52.72
2023-01-22T07:24:25.901Z,59.95
2023-01-22T07:25:25.869Z,53.41
2023-01-22T07:26:25.865Z,60.26
2023-01-22T07:27:25.856Z,61.08
2023-01-22T07:28:25.842Z,45.38
2023-01-22T07:29:25.850Z,48.21
2023-01-22T07:30:25.847Z,54.29
2023-01-22T07:31:25.858Z,56.62
2023-01-22T07:32:25.817Z,58.28
2023-01-22T07:33:26.720Z,48.84
2023-01-22T07:34:26.716Z,58.38
2023-01-22T07:35:25.787Z,58.16
2023-01-22T07:36:25.778Z,45.52
2023-01-22T07:37:25.827Z,59.34
2023-01-22T07:38:25.884Z,55.60
2023-01-22T07:39:25.759Z,61.93
2023-01-22T07:40:25.753Z,55.70
2023-01-22T07:41:26.445Z,61.93
2023-01-22T07:42:26.729Z,62.76
2023-01-22T07:43:25.723Z,61.40
2023-01-22T07:44:25.721Z,53.81
2023-01-22T07:47:32.553Z,55.77
2023-01-22T07:48:32.545Z,56.91
2023-01-22T07:49:33.666Z,64.30
2023-01-22T07:50:33.614Z,54.52
2023-01-22T07:51:33.619Z,62.63
2023-01-22T07:52:34.643Z,62.23
2023-01-22T07:53:35.692Z,60.95
2023-01-22T07:54:33.587Z,63.90
2023-01-22T07:55:36.457Z,64.76
2023-01-22T07:56:34.484Z,62.26
2023-01-22T07:57:33.588Z,58.57
2023-01-22T07:58:33.575Z,60.09
2023-01-22T07:59:33.575Z,58.62
2023-01-22T08:00:35.582Z,59.21
2023-01-22T08:01:34.903Z,61.93
2023-01-22T08:02:33.526Z,59.47
2023-01-22T08:03:33.523Z,65.68
2023-01-22T08:04:33.504Z,62.41
2023-01-22T08:05:33.524Z,61.47
2023-01-22T08:06:33.580Z,64.43
2023-01-22T08:07:33.490Z,58.73
2023-01-22T08:08:34.999Z,63.32
2023-01-22T08:09:33.569Z,59.07
2023-01-22T08:10:33.469Z,62.20
2023-01-22T08:11:33.450Z,56.89
2023-01-22T08:12:34.909Z,60.46
2023-01-22T08:13:33.432Z,62.57
2023-01-22T08:14:33.429Z,61.38
2023-01-22T08:15:33.422Z,62.36
2023-01-22T08:16:33.552Z,65.40
2023-01-22T08:17:33.408Z,59.07
2023-01-22T08:18:33.395Z,60.46
2023-01-22T08:19:33.393Z,55.78
2023-01-22T08:20:33.411Z,62.04
2023-01-22T08:21:33.379Z,64.05
2023-01-22T08:22:33.380Z,65.96
2023-01-22T08:23:33.373Z,55.62
2023-01-22T08:24:33.350Z,61.90
2023-01-22T08:25:33.443Z,60.26
2023-01-22T08:26:33.347Z,59.11
2023-01-22T08:27:33.324Z,62.51
2023-01-22T08:28:34.320Z,63.34
2023-01-22T08:29:33.306Z,70.64
2023-01-22T08:30:38.441Z,62.89
2023-01-22T08:31:34.440Z,59.54
2023-01-22T08:32:33.355Z,60.61
2023-01-22T08:33:33.288Z,63.43
2023-01-22T08:34:33.277Z,61.84
2023-01-22T08:35:33.266Z,62.50
2023-01-22T08:36:33.276Z,64.17
2023-01-22T08:37:33.264Z,61.54
2023-01-22T08:38:33.269Z,62.10
2023-01-22T08:39:33.236Z,61.84
2023-01-22T08:40:33.243Z,60.97
2023-01-22T08:41:33.313Z,63.50
2023-01-22T08:42:33.221Z,64.54
2023-01-22T08:43:33.254Z,63.38
2023-01-22T08:44:33.217Z,56.27
2023-01-22T08:45:33.250Z,62.62
2023-01-22T08:46:33.184Z,61.55
2023-01-22T08:47:33.181Z,62.11
2023-01-22T08:48:33.178Z,60.43
2023-01-22T08:49:33.152Z,65.07
2023-01-22T08:50:33.162Z,60.90
2023-01-22T08:51:33.239Z,64.15
2023-01-22T08:52:34.147Z,60.25
2023-01-22T08:55:39.109Z,65.73
2023-01-22T08:56:39.212Z,66.35
2023-01-22T08:57:40.205Z,63.36
2023-01-22T08:58:40.184Z,64.03
2023-01-22T08:59:41.591Z,64.28
2023-01-22T09:00:40.184Z,63.18
2023-01-22T09:01:40.204Z,64.02
2023-01-22T09:02:40.143Z,59.09
2023-01-22T09:03:40.142Z,58.17
2023-01-22T09:04:40.544Z,62.33
2023-01-22T09:05:41.119Z,61.79
2023-01-22T09:06:40.127Z,61.24
2023-01-22T09:07:40.109Z,63.67
2023-01-22T09:08:40.124Z,65.04
2023-01-22T09:09:40.101Z,63.29
2023-01-22T09:10:40.125Z,65.00
2023-01-22T09:11:40.779Z,61.61
2023-01-22T09:14:47.429Z,62.32
2023-01-22T09:15:47.413Z,63.44
2023-01-22T09:16:48.530Z,62.62
2023-01-22T09:19:37.278Z,63.32
2023-01-22T09:20:37.810Z,64.25
2023-01-22T09:21:37.388Z,64.95
2023-01-22T09:22:38.392Z,65.50
2023-01-22T09:23:39.345Z,62.04
2023-01-22T09:24:38.347Z,60.01
2023-01-22T09:25:38.394Z,64.84
2023-01-22T09:26:38.337Z,59.67
2023-01-22T09:27:38.306Z,56.29
2023-01-22T09:30:45.208Z,62.09
2023-01-22T09:31:46.303Z,62.02
2023-01-22T09:32:46.270Z,60.37
2023-01-22T09:33:46.259Z,63.60
2023-01-22T09:34:46.247Z,64.95
2023-01-22T09:35:46.219Z,73.15
2023-01-22T09:36:46.211Z,60.68
2023-01-22T09:37:46.203Z,63.21
2023-01-22T09:38:46.200Z,60.72
2023-01-22T09:39:46.193Z,55.25
2023-01-22T09:40:46.184Z,63.67
2023-01-22T09:41:46.175Z,59.10
2023-01-22T09:42:46.173Z,64.22
2023-01-22T09:43:46.171Z,64.39
2023-01-22T09:44:46.177Z,62.04
2023-01-22T09:45:46.295Z,60.85
2023-01-22T09:46:46.143Z,62.86
2023-01-22T09:47:46.141Z,63.47
2023-01-22T09:48:46.129Z,65.16
2023-01-22T09:49:46.130Z,62.65
2023-01-22T09:50:46.119Z,55.33
2023-01-22T09:51:46.102Z,63.74
2023-01-22T09:52:46.095Z,61.72
2023-01-22T09:53:46.083Z,63.70
2023-01-22T09:54:46.656Z,65.11
2023-01-22T09:55:46.096Z,63.70
2023-01-22T09:56:46.054Z,62.59
2023-01-22T09:57:46.057Z,61.37
2023-01-22T09:58:46.070Z,65.56
2023-01-22T09:59:46.044Z,63.02
2023-01-22T10:00:46.026Z,62.84
2023-01-22T10:01:46.128Z,65.04
2023-01-22T10:02:46.144Z,73.32
2023-01-22T10:03:46.995Z,69.02
2023-01-22T10:04:46.005Z,63.58
2023-01-22T10:05:45.998Z,61.98
2023-01-22T10:06:45.981Z,64.69
2023-01-22T10:07:45.977Z,61.41
2023-01-22T10:08:45.963Z,60.30
2023-01-22T10:09:46.629Z,65.12
2023-01-22T10:10:45.965Z,65.40
2023-01-22T10:11:45.965Z,63.87
2023-01-22T10:12:45.929Z,63.95
2023-01-22T10:13:45.925Z,60.20
2023-01-22T10:14:45.917Z,60.93
2023-01-22T10:15:45.915Z,60.31
2023-01-22T10:16:47.644Z,66.09
2023-01-22T10:17:45.993Z,61.59
2023-01-22T10:18:45.899Z,64.70
2023-01-22T10:19:45.889Z,65.91
2023-01-22T10:20:45.884Z,63.15
2023-01-22T10:21:45.869Z,64.21
2023-01-22T10:22:45.871Z,65.12
2023-01-22T10:23:45.855Z,62.63
2023-01-22T10:24:45.841Z,63.59
2023-01-22T10:25:45.862Z,63.95
2023-01-22T10:26:45.835Z,64.25
2023-01-22T10:27:45.826Z,62.06
2023-01-22T10:28:46.640Z,62.40
2023-01-22T10:29:45.803Z,62.14
2023-01-22T10:30:45.932Z,67.78
2023-01-22T10:31:45.979Z,63.04
2023-01-22T10:32:45.780Z,62.76
2023-01-22T10:33:45.878Z,64.76
2023-01-22T10:36:34.062Z,66.58
2023-01-22T10:37:33.187Z,66.52
2023-01-22T10:38:34.282Z,64.72
2023-01-22T10:39:34.315Z,64.22
2023-01-22T10:40:34.264Z,62.10
2023-01-22T10:41:34.284Z,61.74
2023-01-22T10:42:34.234Z,64.76
2023-01-22T10:43:34.224Z,63.92
2023-01-22T10:44:34.232Z,59.98
2023-01-22T10:45:34.222Z,63.38
2023-01-22T10:46:34.209Z,64.09
2023-01-22T10:47:34.197Z,63.05
2023-01-22T10:48:34.257Z,63.77
2023-01-22T10:49:34.281Z,64.85
2023-01-22T10:50:34.217Z,63.56
2023-01-22T10:51:34.179Z,63.83
2023-01-22T10:52:34.160Z,62.09
2023-01-22T10:53:34.166Z,63.22
2023-01-22T10:54:34.126Z,62.70
2023-01-22T10:55:35.155Z,65.36
2023-01-22T10:56:34.121Z,65.30
2023-01-22T10:57:34.133Z,64.15
2023-01-22T10:58:34.124Z,64.55
2023-01-22T10:59:34.106Z,63.01
2023-01-22T11:00:46.694Z,64.79
2023-01-22T11:01:36.667Z,64.91
2023-01-22T11:02:34.118Z,65.12
2023-01-22T11:03:34.068Z,63.94
2023-01-22T11:04:34.106Z,65.57
2023-01-22T11:05:34.661Z,65.50
2023-01-22T11:06:34.051Z,65.82
2023-01-22T11:07:34.032Z,61.72
2023-01-22T11:08:34.023Z,65.44
2023-01-22T11:09:34.031Z,64.33
2023-01-22T11:10:34.028Z,64.69
2023-01-22T11:11:34.012Z,61.88
2023-01-22T11:12:35.012Z,63.79
2023-01-22T11:13:33.994Z,62.83
2023-01-22T11:14:34.008Z,63.70
2023-01-22T11:15:34.028Z,64.06
2023-01-22T11:16:33.973Z,62.10
2023-01-22T11:17:33.980Z,62.17
2023-01-22T11:18:33.956Z,64.06
2023-01-22T11:19:37.610Z,66.21
2023-01-22T11:20:34.945Z,65.25
2023-01-22T11:21:34.040Z,67.06
2023-01-22T11:22:33.919Z,68.41
2023-01-22T11:23:33.916Z,67.14
2023-01-22T11:24:34.516Z,61.46
2023-01-22T11:25:33.890Z,62.55
2023-01-22T11:26:33.957Z,61.00
2023-01-22T11:27:33.869Z,62.91
2023-01-22T11:28:33.866Z,63.85
2023-01-22T11:29:33.862Z,62.64
2023-01-22T11:30:33.883Z,66.12
2023-01-22T11:31:33.989Z,65.41
2023-01-22T11:32:33.849Z,62.79
2023-01-22T11:33:33.828Z,63.58
2023-01-22T11:34:33.824Z,62.45
2023-01-22T11:35:33.838Z,62.55
2023-01-22T11:36:34.641Z,62.13
2023-01-22T11:37:33.889Z,61.56
2023-01-22T11:38:33.782Z,64.93
2023-01-22T11:39:34.573Z,67.87
2023-01-22T11:40:33.767Z,65.47
2023-01-22T11:41:33.770Z,63.68
2023-01-22T11:42:33.747Z,63.61
2023-01-22T11:43:34.755Z,65.73
2023-01-22T11:44:33.749Z,59.05
2023-01-22T11:45:33.737Z,64.24
2023-01-22T11:46:33.760Z,66.19
2023-01-22T11:47:33.704Z,63.36
2023-01-22T11:48:33.710Z,65.80
2023-01-22T11:49:33.689Z,67.68
2023-01-22T11:50:34.680Z,63.80
2023-01-22T11:51:33.715Z,64.80
2023-01-22T11:52:33.668Z,64.29
2023-01-22T11:53:33.773Z,66.16
2023-01-22T11:54:33.664Z,62.49
2023-01-22T11:55:33.644Z,65.55
2023-01-22T11:56:33.629Z,66.85
2023-01-22T11:57:33.669Z,65.37
2023-01-22T11:58:33.629Z,66.17
2023-01-22T11:59:33.623Z,62.86
2023-01-22T12:00:33.606Z,64.14
2023-01-22T12:01:33.616Z,63.42
2023-01-22T12:02:33.619Z,67.09
2023-01-22T12:03:33.598Z,67.77
2023-01-22T12:04:34.146Z,64.21
2023-01-22T12:05:33.568Z,61.71
2023-01-22T12:06:33.601Z,66.60
2023-01-22T12:07:34.155Z,63.98
2023-01-22T12:08:33.544Z,62.71
2023-01-22T12:09:33.641Z,63.43
2023-01-22T12:10:33.531Z,63.40
2023-01-22T12:11:33.524Z,62.76
2023-01-22T12:12:33.510Z,63.59
2023-01-22T12:13:33.502Z,64.15
2023-01-22T12:14:34.081Z,65.23
2023-01-22T12:15:34.065Z,65.66
2023-01-22T12:16:33.486Z,63.93
2023-01-22T12:17:33.479Z,62.84
2023-01-22T12:18:35.152Z,64.76
2023-01-22T12:19:33.456Z,61.80
2023-01-22T12:20:33.448Z,65.38
2023-01-22T12:21:33.464Z,67.46
2023-01-22T12:22:34.068Z,66.05
2023-01-22T12:23:34.067Z,62.23
2023-01-22T12:24:33.601Z,65.82
2023-01-22T12:25:33.536Z,63.90
2023-01-22T12:26:33.437Z,66.40
2023-01-22T12:27:33.432Z,66.46
2023-01-22T12:28:33.464Z,64.56
2023-01-22T12:29:33.386Z,63.86
2023-01-22T12:30:33.384Z,64.25
2023-01-22T12:31:33.465Z,61.76
2023-01-22T12:32:34.152Z,65.03
2023-01-22T12:33:33.358Z,66.40
2023-01-22T21:26:17.614Z,60.47
2023-01-22T21:27:17.619Z,62.85
2023-01-22T21:28:18.619Z,54.56
2023-01-22T21:29:18.690Z,59.51
2023-01-22T21:30:19.843Z,60.27
2023-01-22T21:31:18.931Z,54.19
2023-01-22T21:32:19.556Z,60.60
2023-01-22T21:33:19.083Z,63.17
2023-01-22T21:34:19.684Z,60.00
2023-01-22T21:35:18.640Z,63.45
2023-01-22T21:36:18.642Z,58.77
2023-01-22T21:37:19.498Z,56.68
2023-01-22T21:38:18.660Z,57.96
2023-01-22T21:39:18.666Z,64.57
2023-01-22T21:40:19.762Z,62.68
2023-01-22T21:41:19.832Z,59.75
2023-01-22T21:42:18.596Z,61.68
2023-01-22T21:43:18.588Z,62.33
2023-01-22T21:44:19.483Z,60.31
2023-01-22T21:45:18.567Z,60.92
2023-01-22T21:46:18.643Z,57.68
2023-01-22T21:47:20.251Z,59.09
2023-01-22T21:48:19.557Z,54.05
2023-01-22T21:49:18.581Z,55.16
2023-01-22T21:50:18.770Z,58.24
2023-01-22T21:51:18.586Z,57.86
2023-01-22T21:52:18.527Z,59.54
2023-01-22T21:53:18.501Z,49.95
2023-01-22T21:54:18.499Z,59.44
2023-01-22T21:55:18.498Z,58.50
2023-01-22T21:56:19.065Z,62.79
2023-01-22T21:57:18.571Z,59.59
2023-01-22T21:58:18.482Z,59.05
2023-01-22T21:59:18.466Z,52.56
2023-01-22T22:00:18.742Z,59.67